Time;durP1;ratioP1;P1;durP2;ratioP2;P2;SDS_P1;SDS_P2;PMS_P1;PMS_P2;Temp;Humidity;BMP_temperature;BMP_pressure;BME280_temperature;BME280_humidity;BME280_pressure;Samples;Min_cycle;Max_cycle;Signal;HPM_P1;HPM_P2
2021/03/26 00:01:56;;;;;;;11.33;9.97;;;17.60;42.10;;;;;;5037584;28;20439;-42
2021/03/26 00:04:22;;;;;;;16.90;10.57;;;17.60;42.50;;;;;;5047053;28;20279;-43
2021/03/26 00:06:49;;;;;;;14.27;10.43;;;17.60;42.60;;;;;;5043661;28;21149;-43
2021/03/26 00:09:26;;;;;;;14.03;9.00;;;17.60;42.60;;;;;;5042022;28;20181;-42
2021/03/26 00:11:55;;;;;;;13.03;9.93;;;17.60;42.80;;;;;;5032351;28;20444;-43
2021/03/26 00:14:20;;;;;;;13.07;11.17;;;17.70;42.60;;;;;;5041355;28;20468;-42
2021/03/26 00:16:46;;;;;;;10.30;8.80;;;17.70;42.40;;;;;;5037308;28;20440;-44
2021/03/26 00:19:12;;;;;;;12.83;10.80;;;17.90;42.30;;;;;;5039789;28;20655;-42
2021/03/26 00:21:38;;;;;;;13.00;9.80;;;17.90;42.10;;;;;;5032008;28;20197;-43
2021/03/26 00:24:05;;;;;;;13.70;9.33;;;18.00;41.90;;;;;;5041536;28;20431;-42
2021/03/26 00:26:30;;;;;;;11.87;10.10;;;18.00;41.90;;;;;;5035889;28;20442;-42
2021/03/26 00:28:56;;;;;;;12.13;9.50;;;17.90;41.70;;;;;;5036075;28;20502;-42
2021/03/26 00:31:22;;;;;;;12.70;10.57;;;17.80;42.20;;;;;;5041268;28;20534;-42
2021/03/26 00:33:48;;;;;;;14.43;10.40;;;17.80;41.90;;;;;;5032606;28;20275;-42
2021/03/26 00:36:14;;;;;;;12.70;11.40;;;18.00;41.90;;;;;;5039070;28;20645;-43
2021/03/26 00:38:41;;;;;;;12.63;11.10;;;17.90;41.70;;;;;;5043528;28;20463;-42
2021/03/26 00:41:06;;;;;;;11.50;9.03;;;17.90;41.50;;;;;;5037614;28;21281;-44
2021/03/26 00:43:32;;;;;;;12.83;10.30;;;17.90;41.60;;;;;;5034970;28;20505;-43
2021/03/26 00:45:58;;;;;;;11.60;9.60;;;17.80;41.70;;;;;;5032509;28;20193;-43
2021/03/26 00:48:24;;;;;;;15.03;11.60;;;17.80;41.60;;;;;;5041463;28;20435;-43
2021/03/26 00:50:56;;;;;;;12.30;11.00;;;17.80;41.50;;;;;;5031102;28;20231;-43
2021/03/26 00:53:29;;;;;;;15.13;11.47;;;17.70;41.50;;;;;;5046037;28;20275;-44
2021/03/26 00:55:55;;;;;;;11.23;9.50;;;17.60;41.80;;;;;;5032975;28;20451;-43
2021/03/26 00:58:22;;;;;;;10.67;8.37;;;17.50;41.90;;;;;;5040046;28;20439;-45
2021/03/26 01:00:49;;;;;;;11.07;9.87;;;17.60;42.60;;;;;;5038226;28;20443;-43
2021/03/26 01:03:16;;;;;;;9.70;8.33;;;17.60;42.50;;;;;;5045659;28;20432;-42
2021/03/26 01:05:45;;;;;;;10.50;8.60;;;17.70;42.70;;;;;;5036682;28;21031;-43
2021/03/26 01:08:11;;;;;;;15.17;10.00;;;17.70;42.30;;;;;;5045161;28;20455;-42
2021/03/26 01:10:41;;;;;;;14.63;9.30;;;17.80;42.00;;;;;;5041692;28;20533;-43
2021/03/26 01:13:08;;;;;;;9.80;8.10;;;17.80;41.70;;;;;;5039011;28;20442;-43
2021/03/26 01:15:34;;;;;;;11.97;10.77;;;17.80;41.90;;;;;;5035417;28;20455;-44
2021/03/26 01:18:03;;;;;;;12.67;9.37;;;17.70;41.60;;;;;;5032071;28;20440;-43
2021/03/26 01:20:32;;;;;;;10.53;9.10;;;17.50;41.20;;;;;;5036439;28;20946;-45
2021/03/26 01:22:58;;;;;;;14.60;9.83;;;17.20;41.50;;;;;;5038003;28;20493;-43
2021/03/26 01:25:28;;;;;;;10.90;8.97;;;16.90;42.00;;;;;;5045844;28;20926;-45
2021/03/26 01:27:54;;;;;;;11.37;9.77;;;16.50;43.00;;;;;;5040943;28;20197;-46
2021/03/26 01:30:22;;;;;;;13.50;9.93;;;15.50;44.60;;;;;;5036491;28;20547;-46
2021/03/26 01:32:49;;;;;;;13.87;9.57;;;14.80;46.40;;;;;;5040995;28;20575;-47
2021/03/26 01:35:15;;;;;;;9.70;8.70;;;14.50;47.10;;;;;;5045633;28;20478;-44
2021/03/26 01:37:41;;;;;;;10.40;9.10;;;14.40;47.40;;;;;;5040260;28;20439;-45
2021/03/26 01:40:10;;;;;;;10.20;8.73;;;14.40;47.50;;;;;;5036304;28;20445;-48
2021/03/26 01:42:37;;;;;;;11.53;8.57;;;14.40;47.30;;;;;;5043388;28;20203;-44
2021/03/26 01:45:29;;;;;;;11.70;9.20;;;14.50;47.30;;;;;;5045016;28;20443;-43
2021/03/26 01:47:56;;;;;;;13.07;9.40;;;14.40;47.40;;;;;;5041732;28;20530;-43
2021/03/26 01:50:27;;;;;;;13.73;8.87;;;14.00;48.10;;;;;;5042531;28;20490;-43
2021/03/26 01:52:52;;;;;;;12.80;9.27;;;13.70;48.70;;;;;;5033907;28;20454;-47
2021/03/26 01:55:25;;;;;;;10.73;8.60;;;13.40;49.60;;;;;;5032276;28;20444;-43
2021/03/26 01:57:51;;;;;;;12.07;8.77;;;13.20;50.10;;;;;;5038305;28;20185;-44
2021/03/26 02:00:25;;;;;;;12.10;9.87;;;13.00;50.80;;;;;;5035507;28;20473;-44
2021/03/26 02:02:51;;;;;;;12.00;9.43;;;13.00;50.80;;;;;;5035879;28;20284;-44
2021/03/26 02:05:24;;;;;;;10.20;8.93;;;13.10;50.60;;;;;;5040415;28;20442;-44
2021/03/26 02:07:50;;;;;;;13.17;10.33;;;13.30;50.20;;;;;;5033759;28;20475;-43
2021/03/26 02:10:16;;;;;;;13.63;9.30;;;13.30;50.00;;;;;;5039537;28;20541;-43
2021/03/26 02:12:43;;;;;;;11.10;9.63;;;13.40;49.90;;;;;;5044888;28;20435;-44
2021/03/26 02:15:14;;;;;;;12.10;9.43;;;13.40;49.90;;;;;;5038822;28;20624;-42
2021/03/26 02:17:40;;;;;;;11.53;9.20;;;13.40;50.10;;;;;;5038704;28;20455;-44
2021/03/26 02:20:06;;;;;;;11.67;10.30;;;13.40;50.10;;;;;;5039708;28;20444;-43
2021/03/26 02:22:33;;;;;;;12.43;8.97;;;13.40;50.00;;;;;;5035791;28;20197;-43
2021/03/26 02:24:59;;;;;;;18.50;10.00;;;13.50;50.00;;;;;;5039552;28;20273;-43
2021/03/26 02:27:30;;;;;;;14.40;9.77;;;13.50;49.80;;;;;;5043811;28;20555;-45
2021/03/26 02:29:57;;;;;;;13.60;8.90;;;13.40;49.70;;;;;;5034964;28;20280;-43
2021/03/26 02:32:35;;;;;;;11.90;9.70;;;13.40;49.90;;;;;;5043344;28;20452;-43
2021/03/26 02:35:06;;;;;;;12.83;9.37;;;13.30;49.90;;;;;;5034183;28;20447;-44
2021/03/26 02:37:32;;;;;;;14.17;10.00;;;13.00;50.40;;;;;;5041829;28;20491;-43
2021/03/26 02:39:58;;;;;;;13.90;8.60;;;12.80;50.80;;;;;;5034144;28;20443;-44
2021/03/26 02:42:29;;;;;;;18.50;10.27;;;12.50;51.60;;;;;;5043915;28;20963;-43
2021/03/26 02:45:06;;;;;;;11.50;9.20;;;12.00;52.70;;;;;;5041335;28;20189;-43
2021/03/26 02:47:40;;;;;;;17.00;9.70;;;11.70;53.50;;;;;;5037923;28;20461;-43
2021/03/26 02:50:20;;;;;;;10.10;8.80;;;11.70;54.10;;;;;;5034424;28;20574;-43
2021/03/26 02:52:57;;;;;;;9.53;8.30;;;11.90;53.50;;;;;;5038300;28;20792;-43
2021/03/26 02:55:36;;;;;;;12.33;8.60;;;12.10;53.10;;;;;;5039296;28;20486;-43
2021/03/26 02:58:08;;;;;;;11.67;8.80;;;12.30;52.50;;;;;;5036384;28;20454;-43
2021/03/26 03:00:43;;;;;;;13.73;9.17;;;12.60;51.90;;;;;;5039489;28;20446;-43
2021/03/26 03:03:13;;;;;;;11.13;8.63;;;12.70;51.40;;;;;;5043581;28;20810;-43
2021/03/26 03:05:43;;;;;;;12.47;9.40;;;12.70;51.40;;;;;;5044176;28;20493;-43
2021/03/26 03:08:16;;;;;;;14.90;9.07;;;12.60;51.40;;;;;;5040289;28;20485;-43
2021/03/26 03:10:53;;;;;;;11.03;8.67;;;12.70;51.40;;;;;;5039809;28;20495;-43
2021/03/26 03:13:34;;;;;;;12.43;9.50;;;12.70;51.30;;;;;;5039286;28;20833;-44
2021/03/26 03:16:05;;;;;;;11.47;9.30;;;12.60;51.30;;;;;;5038009;28;20534;-43
2021/03/26 03:18:37;;;;;;;14.67;9.17;;;12.50;51.40;;;;;;5047224;28;21030;-43
2021/03/26 03:21:02;;;;;;;12.70;8.37;;;12.10;51.90;;;;;;5041782;28;20964;-43
2021/03/26 03:23:40;;;;;;;15.30;10.63;;;12.00;52.60;;;;;;5045041;28;20448;-43
2021/03/26 03:26:23;;;;;;;12.83;8.67;;;11.90;52.80;;;;;;5045976;28;20207;-43
2021/03/26 03:28:58;;;;;;;12.60;9.33;;;11.80;52.80;;;;;;5047563;28;20443;-43
2021/03/26 03:31:31;;;;;;;13.67;9.23;;;11.90;52.70;;;;;;5041506;28;20574;-43
2021/03/26 03:34:16;;;;;;;10.93;8.77;;;11.90;52.50;;;;;;5037822;28;20448;-43
2021/03/26 03:36:51;;;;;;;10.63;9.53;;;11.80;52.70;;;;;;5039092;28;20448;-44
2021/03/26 03:39:32;;;;;;;11.90;9.67;;;11.80;52.70;;;;;;5043287;28;20430;-44
2021/03/26 03:42:21;;;;;;;15.77;10.00;;;11.70;53.20;;;;;;5035867;28;20506;-43
2021/03/26 03:45:09;;;;;;;12.07;9.80;;;11.70;53.20;;;;;;5039674;28;20470;-43
2021/03/26 03:47:42;;;;;;;12.63;9.30;;;11.70;53.10;;;;;;5045996;28;20451;-43
2021/03/26 03:50:19;;;;;;;11.47;8.80;;;11.70;53.10;;;;;;5039399;28;20549;-43
2021/03/26 03:52:54;;;;;;;10.13;9.13;;;11.40;53.60;;;;;;5043644;28;20455;-43
2021/03/26 03:55:29;;;;;;;15.60;9.27;;;11.40;53.90;;;;;;5036579;28;20447;-43
2021/03/26 03:58:24;;;;;;;12.03;8.70;;;11.40;53.50;;;;;;5033374;28;20467;-43
2021/03/26 04:00:56;;;;;;;11.53;8.70;;;11.20;53.90;;;;;;5032655;28;20487;-43
2021/03/26 04:03:31;;;;;;;15.67;8.80;;;11.10;54.30;;;;;;5041902;28;20447;-44
2021/03/26 04:06:16;;;;;;;10.00;8.80;;;11.10;54.30;;;;;;5035530;28;20442;-43
2021/03/26 04:08:50;;;;;;;12.10;9.73;;;11.20;54.00;;;;;;5037208;28;21321;-45
2021/03/26 04:11:35;;;;;;;10.53;8.27;;;11.30;53.70;;;;;;5043056;28;20489;-43
2021/03/26 04:14:23;;;;;;;14.97;9.80;;;11.30;53.60;;;;;;5032074;28;20464;-43
2021/03/26 04:16:57;;;;;;;12.13;9.83;;;11.10;53.90;;;;;;5042511;28;20447;-44
2021/03/26 04:19:58;;;;;;;13.90;10.67;;;11.20;53.90;;;;;;5040696;28;20993;-42
2021/03/26 04:22:31;;;;;;;10.23;8.93;;;10.70;54.60;;;;;;5039104;28;20869;-42
2021/03/26 04:25:24;;;;;;;18.70;9.23;;;10.60;55.40;;;;;;5033737;28;20452;-42
2021/03/26 04:28:00;;;;;;;12.00;8.67;;;10.50;55.50;;;;;;5039398;28;20446;-42
2021/03/26 04:30:29;;;;;;;11.10;8.60;;;10.40;55.70;;;;;;5033411;28;20997;-42
2021/03/26 04:32:56;;;;;;;11.23;9.20;;;10.20;56.10;;;;;;5032053;28;20451;-43
2021/03/26 04:35:24;;;;;;;9.20;7.73;;;10.30;56.00;;;;;;5040981;28;21009;-42
2021/03/26 04:38:09;;;;;;;14.00;9.43;;;10.20;56.20;;;;;;5035735;28;20455;-42
2021/03/26 04:40:40;;;;;;;12.53;8.90;;;10.40;55.90;;;;;;5045098;28;20467;-42
2021/03/26 04:43:13;;;;;;;10.73;9.50;;;10.60;55.60;;;;;;5045803;28;20458;-42
2021/03/26 04:46:07;;;;;;;10.03;8.17;;;10.60;55.10;;;;;;5048187;28;20443;-44
2021/03/26 04:49:10;;;;;;;10.90;8.03;;;10.70;54.90;;;;;;5019909;28;20464;-42
2021/03/26 04:51:48;;;;;;;12.50;8.90;;;10.70;54.90;;;;;;5036095;28;20503;-43
2021/03/26 04:54:31;;;;;;;14.10;8.60;;;10.80;54.60;;;;;;5039247;28;20474;-43
2021/03/26 04:57:04;;;;;;;10.87;8.93;;;10.80;54.60;;;;;;5041665;28;20447;-42
2021/03/26 04:59:50;;;;;;;11.33;8.77;;;10.60;55.10;;;;;;5034638;28;20950;-42
2021/03/26 05:02:19;;;;;;;10.17;9.10;;;10.70;54.90;;;;;;5040184;28;20857;-42
2021/03/26 05:04:45;;;;;;;11.37;9.10;;;10.60;54.70;;;;;;5039576;28;20931;-42
2021/03/26 05:07:23;;;;;;;12.13;10.10;;;10.50;55.30;;;;;;5034308;28;20513;-42
2021/03/26 05:09:52;;;;;;;9.47;8.23;;;10.40;55.40;;;;;;5037188;28;20847;-42
2021/03/26 05:12:22;;;;;;;11.80;9.77;;;10.10;56.40;;;;;;5041797;28;20440;-42
2021/03/26 05:14:58;;;;;;;12.77;10.00;;;10.00;56.40;;;;;;5041456;28;20446;-42
2021/03/26 05:17:41;;;;;;;11.20;9.10;;;10.20;56.30;;;;;;5033754;28;20505;-42
2021/03/26 05:20:18;;;;;;;14.20;11.23;;;10.10;56.10;;;;;;5039453;28;20481;-42
2021/03/26 05:22:54;;;;;;;13.50;9.27;;;10.00;56.50;;;;;;5032730;28;20443;-42
2021/03/26 05:25:31;;;;;;;15.93;10.97;;;9.80;57.90;;;;;;5041985;28;21025;-42
2021/03/26 05:27:58;;;;;;;16.13;10.10;;;9.70;58.20;;;;;;5043193;28;20931;-42
2021/03/26 05:30:39;;;;;;;15.13;10.63;;;9.70;58.60;;;;;;5036205;28;20623;-42
2021/03/26 05:33:29;;;;;;;16.43;9.97;;;9.90;58.20;;;;;;5045660;28;20457;-42
2021/03/26 05:36:04;;;;;;;11.40;9.70;;;10.10;56.90;;;;;;5040650;28;20888;-42
2021/03/26 05:38:45;;;;;;;12.47;9.53;;;9.80;57.90;;;;;;5024280;28;20454;-42
2021/03/26 05:41:45;;;;;;;12.80;9.30;;;9.60;58.60;;;;;;5037426;28;20571;-42
2021/03/26 05:44:35;;;;;;;13.80;10.00;;;9.60;58.80;;;;;;5047204;28;20814;-42
2021/03/26 05:47:41;;;;;;;14.23;9.50;;;9.70;58.30;;;;;;5032090;28;20590;-44
2021/03/26 05:50:23;;;;;;;12.70;9.73;;;9.60;58.60;;;;;;5031528;28;20499;-42
2021/03/26 05:53:10;;;;;;;13.90;9.00;;;9.80;58.60;;;;;;5034094;28;20556;-42
2021/03/26 05:56:13;;;;;;;13.37;9.00;;;9.90;58.20;;;;;;5039074;28;20440;-43
2021/03/26 05:59:02;;;;;;;12.47;9.27;;;10.20;56.80;;;;;;5047512;28;20496;-41
2021/03/26 06:01:50;;;;;;;14.80;9.17;;;10.50;57.90;;;;;;5034926;28;20455;-41
2021/03/26 06:04:21;;;;;;;15.43;10.00;;;10.80;57.60;;;;;;5035698;28;20551;-41
2021/03/26 06:07:34;;;;;;;17.17;8.10;;;11.00;55.80;;;;;;5039895;28;20880;-42
2021/03/26 06:10:12;;;;;;;12.97;9.17;;;11.20;57.80;;;;;;5035827;28;20566;-42
2021/03/26 06:13:20;;;;;;;12.50;9.50;;;11.90;54.40;;;;;;5046475;28;20580;-42
2021/03/26 06:15:45;;;;;;;13.70;10.00;;;12.50;52.40;;;;;;5037071;28;21405;-42
2021/03/26 06:18:42;;;;;;;11.50;9.00;;;13.10;50.90;;;;;;5039098;28;20483;-41
2021/03/26 06:21:27;;;;;;;12.43;9.87;;;13.40;49.70;;;;;;5036844;28;20205;-42
2021/03/26 06:24:11;;;;;;;14.30;10.50;;;13.80;48.60;;;;;;5030970;28;20462;-41
2021/03/26 06:26:55;;;;;;;11.40;10.00;;;14.10;48.20;;;;;;5036204;28;20626;-43
2021/03/26 06:29:40;;;;;;;11.60;9.63;;;14.50;47.50;;;;;;5041689;28;20523;-42
2021/03/26 06:32:27;;;;;;;10.40;8.63;;;14.70;46.90;;;;;;5037603;28;20554;-43
2021/03/26 06:35:17;;;;;;;10.83;8.33;;;14.90;46.60;;;;;;5036209;28;21001;-43
2021/03/26 06:38:14;;;;;;;14.03;10.30;;;15.10;46.10;;;;;;5042891;28;20451;-42
2021/03/26 06:40:59;;;;;;;16.70;9.87;;;14.80;46.50;;;;;;5040111;28;20477;-42
2021/03/26 06:43:43;;;;;;;12.83;10.30;;;14.90;46.80;;;;;;5040310;28;20440;-41
2021/03/26 06:46:31;;;;;;;13.20;9.67;;;15.00;46.40;;;;;;5049166;28;20448;-41
2021/03/26 06:49:28;;;;;;;10.53;9.27;;;15.10;46.50;;;;;;5045566;28;20497;-41
2021/03/26 06:52:12;;;;;;;13.53;11.00;;;15.50;45.90;;;;;;5038640;28;20451;-42
2021/03/26 06:55:14;;;;;;;12.93;11.00;;;15.60;45.30;;;;;;5037506;28;20967;-42
2021/03/26 06:57:58;;;;;;;17.03;11.97;;;15.70;45.20;;;;;;5040861;28;20439;-42
2021/03/26 07:00:59;;;;;;;16.47;10.67;;;15.30;45.30;;;;;;5038213;28;21040;-43
2021/03/26 07:03:46;;;;;;;11.97;10.70;;;15.10;46.40;;;;;;5044654;28;20440;-44
2021/03/26 07:06:49;;;;;;;15.43;12.20;;;14.60;47.10;;;;;;5040005;28;20950;-42
2021/03/26 07:09:14;;;;;;;18.10;12.00;;;14.60;48.00;;;;;;5038480;28;20522;-43
2021/03/26 07:11:56;;;;;;;16.00;11.53;;;14.60;47.80;;;;;;5035849;28;21001;-43
2021/03/26 07:14:56;;;;;;;13.87;11.50;;;14.50;47.60;;;;;;5046655;28;20204;-43
2021/03/26 07:17:52;;;;;;;11.77;9.83;;;14.40;48.00;;;;;;5050999;28;20438;-42
2021/03/26 07:20:36;;;;;;;17.33;11.90;;;14.20;48.60;;;;;;5049512;28;20454;-42
2021/03/26 07:23:20;;;;;;;14.20;12.30;;;13.70;49.60;;;;;;5053584;28;20556;-45
2021/03/26 07:26:10;;;;;;;15.30;11.50;;;13.80;50.00;;;;;;5052859;28;20457;-42
2021/03/26 07:28:40;;;;;;;15.03;10.90;;;14.00;49.70;;;;;;5052571;28;20435;-42
2021/03/26 07:31:32;;;;;;;13.90;11.70;;;14.10;49.70;;;;;;5052479;28;20475;-42
2021/03/26 07:34:22;;;;;;;14.97;12.03;;;14.30;49.70;;;;;;5052961;28;20501;-42
2021/03/26 07:37:16;;;;;;;13.97;11.50;;;14.40;49.80;;;;;;5052460;28;20477;-42
2021/03/26 07:40:02;;;;;;;17.00;12.47;;;14.70;49.20;;;;;;5052355;28;20442;-44
2021/03/26 07:43:05;;;;;;;16.33;12.03;;;15.10;48.60;;;;;;5051723;28;20442;-43
2021/03/26 07:45:48;;;;;;;16.23;11.83;;;15.60;47.90;;;;;;5050678;28;20771;-42
2021/03/26 07:48:36;;;;;;;17.80;13.17;;;16.00;47.00;;;;;;5052938;28;20813;-43
2021/03/26 07:51:19;;;;;;;14.40;12.67;;;16.20;46.80;;;;;;5052173;28;20528;-42
2021/03/26 07:54:22;;;;;;;16.40;12.63;;;16.50;46.30;;;;;;5053977;28;20423;-43
2021/03/26 07:57:18;;;;;;;14.53;12.97;;;16.70;45.90;;;;;;5052169;28;20514;-43
2021/03/26 08:00:08;;;;;;;14.90;12.80;;;16.60;45.80;;;;;;5047227;28;20493;-42
2021/03/26 08:02:56;;;;;;;14.70;11.30;;;16.70;45.80;;;;;;5041484;28;20438;-47
2021/03/26 08:05:47;;;;;;;15.90;12.50;;;16.70;46.10;;;;;;5052014;28;20534;-45
2021/03/26 08:08:37;;;;;;;19.63;12.30;;;16.90;46.10;;;;;;5052227;28;20529;-43
2021/03/26 08:11:40;;;;;;;16.63;11.47;;;17.20;44.60;;;;;;5049921;28;20494;-43
2021/03/26 08:14:36;;;;;;;13.23;11.83;;;17.50;43.90;;;;;;5052188;28;20434;-44
2021/03/26 08:17:02;;;;;;;13.80;12.43;;;17.70;43.80;;;;;;5051589;28;21059;-44
2021/03/26 08:19:49;;;;;;;17.37;12.40;;;17.80;43.60;;;;;;5048564;28;20443;-42
2021/03/26 08:22:35;;;;;;;15.50;11.10;;;17.50;44.20;;;;;;5052226;28;20549;-44
2021/03/26 08:25:32;;;;;;;15.13;12.87;;;17.70;44.10;;;;;;5051827;28;20455;-45
2021/03/26 08:28:16;;;;;;;14.23;12.20;;;18.00;43.50;;;;;;5051665;28;21000;-43
2021/03/26 08:30:53;;;;;;;12.90;11.60;;;18.20;43.00;;;;;;5051491;28;20487;-43
2021/03/26 08:33:31;;;;;;;13.97;11.80;;;18.50;43.00;;;;;;5052064;28;20430;-44
2021/03/26 08:36:24;;;;;;;14.40;12.63;;;18.60;42.40;;;;;;5051551;28;20427;-43
2021/03/26 08:39:05;;;;;;;16.90;12.37;;;18.70;42.40;;;;;;5049443;28;20438;-42
2021/03/26 08:41:35;;;;;;;16.83;12.03;;;18.80;42.10;;;;;;5051229;28;20513;-42
2021/03/26 08:44:02;;;;;;;11.60;10.40;;;19.00;41.90;;;;;;5051631;28;20504;-46
2021/03/26 08:46:38;;;;;;;15.03;11.90;;;19.10;41.80;;;;;;5051457;28;20446;-43
2021/03/26 08:49:31;;;;;;;14.67;12.30;;;19.30;41.40;;;;;;5051180;28;20432;-43
2021/03/26 08:52:14;;;;;;;13.40;12.00;;;19.50;40.40;;;;;;5050980;28;20459;-43
2021/03/26 08:54:58;;;;;;;14.70;12.00;;;19.60;40.10;;;;;;5051180;28;20480;-43
2021/03/26 08:57:42;;;;;;;12.60;11.30;;;19.70;39.80;;;;;;5051508;28;20774;-43
2021/03/26 09:00:35;;;;;;;14.07;11.30;;;19.80;40.50;;;;;;5044677;28;20432;-43
2021/03/26 09:03:13;;;;;;;13.83;11.40;;;20.00;39.90;;;;;;5051686;28;20419;-42
2021/03/26 09:05:39;;;;;;;14.60;11.27;;;20.00;39.50;;;;;;5049044;28;20435;-43
2021/03/26 09:08:22;;;;;;;11.97;10.67;;;20.20;39.40;;;;;;5050555;28;20490;-45
2021/03/26 09:11:40;;;;;;;14.63;11.40;;;20.30;40.00;;;;;;5051042;28;20263;-42
2021/03/26 09:14:15;;;;;;;12.37;11.10;;;20.30;39.50;;;;;;5022334;28;20500;-42
2021/03/26 09:16:53;;;;;;;18.20;10.20;;;20.50;40.20;;;;;;5050743;28;20431;-43
2021/03/26 09:19:40;;;;;;;12.20;10.60;;;20.60;39.90;;;;;;5047461;28;20474;-43
2021/03/26 09:22:27;;;;;;;14.13;11.13;;;20.80;39.70;;;;;;5050331;28;20451;-44
2021/03/26 09:25:21;;;;;;;12.57;10.80;;;21.00;38.80;;;;;;5050279;28;20480;-43
2021/03/26 09:27:57;;;;;;;13.60;10.30;;;21.10;39.20;;;;;;5050815;28;20419;-42
2021/03/26 09:30:26;;;;;;;12.83;10.73;;;21.30;38.30;;;;;;5050250;28;20543;-44
2021/03/26 09:33:08;;;;;;;11.70;10.10;;;21.50;38.40;;;;;;5049859;28;21287;-43
2021/03/26 09:35:36;;;;;;;14.77;10.17;;;21.70;38.00;;;;;;5049976;28;20454;-42
2021/03/26 09:38:24;;;;;;;12.37;11.17;;;21.90;38.00;;;;;;5050651;28;20436;-43
2021/03/26 09:41:44;;;;;;;13.30;10.83;;;22.00;36.50;;;;;;5050232;28;20504;-45
2021/03/26 09:44:07;;;;;;;12.53;10.30;;;22.10;35.70;;;;;;5050529;28;20443;-43
2021/03/26 09:46:43;;;;;;;12.23;10.20;;;22.30;36.60;;;;;;5050027;28;21176;-42
2021/03/26 09:49:32;;;;;;;12.57;9.63;;;22.30;35.80;;;;;;5050286;28;20435;-43
2021/03/26 09:52:08;;;;;;;9.97;8.90;;;22.50;35.50;;;;;;5050294;28;20504;-43
2021/03/26 09:54:40;;;;;;;11.50;10.00;;;22.60;34.90;;;;;;5050567;28;20418;-42
2021/03/26 09:57:30;;;;;;;13.50;10.70;;;22.60;34.70;;;;;;5049877;28;20431;-43
2021/03/26 10:00:17;;;;;;;12.23;10.30;;;22.90;33.90;;;;;;5044549;28;20834;-44
2021/03/26 10:03:13;;;;;;;12.30;11.10;;;22.90;34.00;;;;;;5050838;28;20426;-43
2021/03/26 10:06:05;;;;;;;9.73;8.73;;;23.00;33.60;;;;;;5049851;28;20443;-42
2021/03/26 10:08:53;;;;;;;11.87;10.03;;;23.10;34.90;;;;;;5038016;28;20474;-43
2021/03/26 10:11:29;;;;;;;13.77;9.93;;;23.30;33.50;;;;;;5053897;28;20954;-45
2021/03/26 10:14:08;;;;;;;12.37;10.00;;;23.30;32.80;;;;;;5054280;28;20425;-44
2021/03/26 10:16:34;;;;;;;10.90;9.80;;;23.50;33.10;;;;;;5054078;28;20426;-44
2021/03/26 10:19:06;;;;;;;11.37;10.13;;;23.30;32.70;;;;;;5053175;28;20438;-43
2021/03/26 10:21:33;;;;;;;12.40;10.50;;;22.90;33.50;;;;;;5052708;28;20194;-44
2021/03/26 10:24:21;;;;;;;15.27;10.50;;;23.10;34.30;;;;;;5053570;28;20423;-44
2021/03/26 10:27:10;;;;;;;13.20;9.70;;;23.50;33.60;;;;;;5054264;28;20423;-45
2021/03/26 10:29:41;;;;;;;12.47;9.53;;;23.70;31.80;;;;;;5053709;28;20434;-43
2021/03/26 10:32:16;;;;;;;11.67;9.63;;;23.70;31.30;;;;;;5053317;28;20554;-43
2021/03/26 10:34:44;;;;;;;15.27;9.23;;;23.90;31.90;;;;;;5054419;28;20426;-42
2021/03/26 10:37:43;;;;;;;11.83;9.87;;;23.90;32.30;;;;;;5053929;28;20795;-42
2021/03/26 10:40:20;;;;;;;11.10;9.17;;;24.10;31.50;;;;;;5053193;28;21308;-42
2021/03/26 10:42:58;;;;;;;10.63;8.60;;;24.20;31.30;;;;;;5054390;28;20461;-43
2021/03/26 10:45:43;;;;;;;10.97;9.30;;;24.40;30.70;;;;;;5053522;28;20871;-44
2021/03/26 10:48:12;;;;;;;11.60;9.10;;;24.20;29.60;;;;;;5053511;28;20450;-44
2021/03/26 10:51:19;;;;;;;10.17;8.43;;;24.30;29.90;;;;;;5052660;28;20516;-43
2021/03/26 10:53:50;;;;;;;12.63;8.77;;;24.40;30.10;;;;;;5050814;28;20451;-43
2021/03/26 10:56:38;;;;;;;11.70;8.93;;;24.70;30.10;;;;;;5053688;28;20457;-43
2021/03/26 10:59:12;;;;;;;9.40;8.10;;;25.00;30.20;;;;;;5053632;28;20538;-43
2021/03/26 11:01:42;;;;;;;7.83;7.00;;;25.10;29.50;;;;;;5047683;28;20945;-43
2021/03/26 11:04:40;;;;;;;9.23;8.37;;;25.00;29.30;;;;;;5053850;28;20439;-43
2021/03/26 11:07:16;;;;;;;7.87;6.77;;;25.00;29.20;;;;;;5027219;28;21023;-43
2021/03/26 11:09:46;;;;;;;10.07;8.00;;;25.10;29.30;;;;;;5053353;28;20919;-42
2021/03/26 11:12:30;;;;;;;10.07;7.37;;;25.10;29.30;;;;;;5053226;28;20427;-43
2021/03/26 11:15:17;;;;;;;11.63;7.77;;;25.10;29.00;;;;;;5052877;28;20430;-43
2021/03/26 11:17:57;;;;;;;8.00;7.30;;;25.10;28.80;;;;;;5051178;28;20428;-43
2021/03/26 11:20:41;;;;;;;8.80;7.93;;;25.00;29.20;;;;;;5049271;28;20439;-43
2021/03/26 11:23:16;;;;;;;9.27;7.47;;;25.10;29.10;;;;;;5052020;28;20447;-43
2021/03/26 11:25:45;;;;;;;10.00;8.57;;;24.80;29.30;;;;;;5052935;28;20489;-43
2021/03/26 11:28:23;;;;;;;9.20;8.07;;;25.10;28.90;;;;;;5052935;28;20781;-42
2021/03/26 11:30:54;;;;;;;8.60;7.70;;;25.00;28.80;;;;;;5052476;28;20483;-43
2021/03/26 11:33:25;;;;;;;10.47;9.03;;;25.00;29.30;;;;;;5052974;28;20753;-44
2021/03/26 11:35:56;;;;;;;10.73;7.20;;;24.40;28.90;;;;;;5052399;28;20419;-44
2021/03/26 11:38:30;;;;;;;8.07;7.10;;;24.50;29.50;;;;;;5052467;28;20435;-43
2021/03/26 11:41:12;;;;;;;7.50;6.80;;;24.70;29.00;;;;;;5051250;28;20438;-43
2021/03/26 11:43:47;;;;;;;9.20;6.60;;;24.90;28.50;;;;;;5052971;28;20431;-43
2021/03/26 11:46:16;;;;;;;7.43;6.60;;;24.60;29.10;;;;;;5050701;28;20800;-43
2021/03/26 11:48:45;;;;;;;7.30;6.03;;;24.80;29.60;;;;;;5052517;28;20801;-43
2021/03/26 11:51:13;;;;;;;9.33;7.40;;;25.00;28.70;;;;;;5052200;28;20479;-44
2021/03/26 11:54:00;;;;;;;9.27;6.97;;;25.20;28.70;;;;;;5053006;28;20845;-45
2021/03/26 11:56:32;;;;;;;8.50;7.30;;;25.40;28.50;;;;;;5051942;28;20424;-44
2021/03/26 11:59:13;;;;;;;7.37;6.57;;;25.40;28.90;;;;;;5052244;28;20479;-43
2021/03/26 12:02:13;;;;;;;6.60;5.27;;;25.40;28.50;;;;;;5046793;28;20442;-43
2021/03/26 12:04:52;;;;;;;5.80;5.13;;;25.70;28.20;;;;;;5052468;28;20935;-43
2021/03/26 12:07:24;;;;;;;5.07;4.13;;;25.90;26.60;;;;;;5052367;28;20467;-43
2021/03/26 12:10:22;;;;;;;6.40;4.77;;;26.00;26.60;;;;;;5052033;28;20458;-45
2021/03/26 12:12:58;;;;;;;7.50;5.40;;;25.90;26.20;;;;;;5050171;28;20451;-42
2021/03/26 12:15:30;;;;;;;5.67;5.17;;;25.50;27.30;;;;;;5051741;28;20419;-43
2021/03/26 12:18:14;;;;;;;5.73;4.93;;;25.30;28.10;;;;;;5051722;28;20431;-43
2021/03/26 12:20:41;;;;;;;5.17;3.80;;;25.30;27.70;;;;;;5048296;28;20934;-43
2021/03/26 12:23:19;;;;;;;4.13;3.73;;;25.20;27.90;;;;;;5051793;28;20427;-44
2021/03/26 12:26:07;;;;;;;4.40;3.47;;;25.10;26.30;;;;;;5051834;28;20458;-44
2021/03/26 12:28:55;;;;;;;4.33;3.90;;;24.90;26.30;;;;;;5051062;28;20473;-43
2021/03/26 12:31:24;;;;;;;6.00;3.70;;;24.70;25.80;;;;;;5051102;28;20505;-44
2021/03/26 12:34:06;;;;;;;3.93;3.40;;;24.50;26.00;;;;;;5051667;28;20766;-43
2021/03/26 12:36:54;;;;;;;9.07;4.40;;;24.50;26.00;;;;;;5051545;28;20526;-43
2021/03/26 12:39:25;;;;;;;6.03;4.17;;;24.60;25.90;;;;;;5049828;28;20443;-44
2021/03/26 12:42:07;;;;;;;4.70;4.07;;;24.70;26.20;;;;;;5051292;28;20477;-47
2021/03/26 12:44:37;;;;;;;7.10;3.87;;;24.60;26.80;;;;;;5051928;28;20528;-45
2021/03/26 12:47:18;;;;;;;5.90;4.33;;;24.70;27.00;;;;;;5051176;28;20910;-43
2021/03/26 12:49:52;;;;;;;5.37;4.40;;;24.80;26.90;;;;;;5051752;28;20808;-44
2021/03/26 12:52:33;;;;;;;6.60;5.23;;;25.30;27.10;;;;;;5051662;28;20431;-43
2021/03/26 12:55:07;;;;;;;5.80;5.20;;;25.20;26.80;;;;;;5050928;28;20477;-43
2021/03/26 12:57:43;;;;;;;7.30;4.90;;;25.00;26.60;;;;;;5051140;28;20435;-43
2021/03/26 13:00:50;;;;;;;7.33;4.47;;;25.00;26.40;;;;;;5044210;28;20458;-43
2021/03/26 13:03:31;;;;;;;6.00;4.80;;;24.80;26.80;;;;;;5051350;28;20441;-43
2021/03/26 13:06:12;;;;;;;5.10;4.47;;;24.60;26.70;;;;;;5049521;28;20835;-42
2021/03/26 13:08:49;;;;;;;6.30;4.77;;;24.80;26.80;;;;;;5050719;28;20482;-43
2021/03/26 13:11:31;;;;;;;5.07;4.57;;;24.70;26.90;;;;;;5050510;28;20620;-43
2021/03/26 13:14:41;;;;;;;6.80;5.00;;;24.70;26.70;;;;;;5051125;28;20453;-44
2021/03/26 13:17:25;;;;;;;4.70;4.20;;;25.00;26.70;;;;;;5050677;28;20917;-43
2021/03/26 13:19:52;;;;;;;5.23;4.60;;;25.40;26.70;;;;;;5047060;28;20533;-45
2021/03/26 13:22:34;;;;;;;7.33;4.40;;;25.40;26.00;;;;;;5051098;28;20435;-43
2021/03/26 13:25:22;;;;;;;3.83;3.50;;;25.50;26.00;;;;;;5050584;28;20484;-43
2021/03/26 13:28:12;;;;;;;4.50;3.90;;;25.40;25.80;;;;;;5050713;28;20439;-43
2021/03/26 13:30:51;;;;;;;7.10;4.90;;;25.50;25.70;;;;;;5049742;28;21021;-44
2021/03/26 13:33:19;;;;;;;6.33;4.03;;;25.50;25.20;;;;;;5050668;28;20842;-43
2021/03/26 13:35:53;;;;;;;3.93;3.50;;;25.20;25.60;;;;;;5050440;28;20804;-43